Weather at Dune Airpark

Public forecast

Using degrees Celsius for public forecast. Weather courtesy of forecast.io.

Closest aviation weather report (METAR) to Dune Airpark

Closest report is Taranto-Grottaglie "Marcello Arlotta" Airport, 17.1 nm (31.7 km) SSW. Retrieved 2021/10/24 17:50 UTC (1 hour ago):

LIBG 241750Z 04008KT CAVOK 18/12 Q1021

Closest aviation forecast (TAF) to Dune Airpark

Forecast is more than 12 hours old.

Closest forecast is Taranto-Grottaglie "Marcello Arlotta" Airport, 17.1 nm (31.7 km) SSW. Retrieved 2017/11/11 18:24 UTC (4 years ago):

TAF TAF LIBG 111917Z 1118/1206 CNL